createdAt,value
2018-11-28T05:38:36.947Z,29.43
2018-11-28T05:41:04.873Z,26.03
2018-11-28T05:43:32.874Z,26.90
2018-11-28T05:46:00.814Z,25.70
2018-11-28T05:48:28.742Z,29.20
2018-11-28T05:50:56.680Z,29.30
2018-11-28T05:53:24.654Z,29.53
2018-11-28T05:55:52.622Z,27.47
2018-11-28T05:58:20.881Z,30.57
2018-11-28T06:00:48.866Z,27.97
2018-11-28T06:03:16.824Z,28.40
2018-11-28T06:05:44.786Z,28.30
2018-11-28T06:08:12.723Z,29.90
2018-11-28T06:10:40.790Z,29.10
2018-11-28T06:13:08.811Z,30.73
2018-11-28T06:15:36.798Z,32.97
2018-11-28T06:18:05.198Z,29.10
2018-11-28T06:20:33.129Z,29.20
2018-11-28T06:23:01.114Z,29.30
2018-11-28T06:25:29.092Z,29.17
2018-11-28T06:27:57.070Z,30.97
2018-11-28T06:30:25.046Z,29.20
2018-11-28T06:32:52.976Z,29.33
2018-11-28T06:35:20.902Z,29.47
2018-11-28T06:37:48.856Z,30.70
2018-11-28T06:40:23.653Z,29.97
2018-11-28T06:42:46.023Z,29.00
2018-11-28T06:45:14.499Z,29.30
2018-11-28T06:47:42.434Z,29.67
2018-11-28T06:50:12.166Z,26.90
2018-11-28T06:52:40.132Z,27.43
2018-11-28T06:55:15.186Z,28.13
2018-11-28T06:57:43.155Z,28.70
2018-11-28T07:00:13.568Z,27.67
2018-11-28T07:02:41.791Z,27.90
2018-11-28T07:05:10.131Z,27.17
2018-11-28T07:07:38.082Z,27.53
2018-11-28T07:10:08.935Z,25.90
2018-11-28T07:12:36.890Z,26.40
2018-11-28T07:15:05.790Z,23.57
2018-11-28T07:17:33.751Z,24.30
2018-11-28T07:20:01.719Z,24.50
2018-11-28T07:22:29.642Z,24.70
2018-11-28T07:24:57.584Z,24.20
2018-11-28T07:27:25.544Z,24.37
2018-11-28T07:29:53.484Z,22.67
2018-11-28T07:32:21.454Z,23.87
2018-11-28T07:34:49.442Z,23.17
2018-11-28T07:37:17.418Z,23.30
2018-11-28T07:39:45.525Z,21.50
2018-11-28T07:42:13.147Z,23.47
2018-11-28T07:44:41.106Z,21.57
2018-11-28T16:01:45.325Z,8.57
2018-11-28T16:04:13.354Z,8.33
2018-11-28T16:06:41.298Z,9.50
2018-11-28T16:09:13.634Z,8.53
2018-11-28T16:11:41.658Z,9.80
2018-11-28T16:14:09.592Z,8.60
2018-11-28T16:16:37.610Z,9.90
2018-11-28T16:19:05.670Z,9.10
2018-11-28T16:21:33.684Z,8.37
2018-11-28T16:24:01.594Z,10.00
2018-11-28T16:26:29.564Z,11.13
2018-11-28T16:28:57.531Z,9.87
2018-11-28T16:31:25.455Z,10.93
2018-11-28T16:33:53.381Z,9.90
2018-11-28T16:36:21.398Z,9.70
2018-11-28T16:38:49.300Z,9.57
2018-11-28T16:41:17.247Z,10.57
2018-11-28T16:43:44.727Z,10.60
2018-11-28T16:46:12.710Z,12.30
2018-11-28T16:48:40.630Z,11.93
2018-11-28T16:51:08.665Z,12.80
2018-11-28T16:53:36.620Z,13.30
2018-11-28T16:56:04.962Z,12.20
2018-11-28T16:58:32.890Z,13.40
2018-11-28T17:01:00.818Z,13.00
2018-11-28T17:03:28.806Z,12.40
2018-11-28T17:05:56.754Z,15.10
2018-11-28T17:08:24.690Z,12.73
2018-11-28T17:10:52.639Z,14.17
2018-11-28T17:13:20.590Z,14.40
2018-11-28T17:15:48.515Z,14.13
2018-11-28T17:18:16.438Z,15.23
2018-11-28T17:20:44.399Z,11.40
2018-11-28T17:23:12.332Z,13.37
2018-11-28T17:25:40.271Z,15.00
2018-11-28T17:28:08.298Z,13.60
2018-11-28T17:30:36.585Z,13.00
2018-11-28T17:33:04.858Z,15.60
2018-11-28T17:35:32.836Z,22.00
2018-11-28T17:38:00.791Z,21.93
2018-11-28T17:40:28.971Z,19.63
2018-11-28T17:42:57.454Z,16.40
2018-11-28T17:45:25.023Z,13.57
2018-11-28T17:47:52.962Z,14.57
2018-11-28T17:50:21.699Z,19.93
2018-11-28T17:53:06.357Z,13.60
2018-11-28T17:55:35.513Z,14.63
2018-11-28T17:58:03.503Z,23.03
2018-11-28T18:00:31.458Z,12.57
2018-11-28T18:02:59.393Z,15.57
2018-11-28T18:05:27.323Z,15.60
2018-11-28T18:07:55.270Z,17.60
2018-11-28T18:10:23.202Z,18.60
2018-11-28T18:12:56.890Z,23.10
2018-11-28T18:15:24.802Z,18.87
2018-11-28T18:17:53.499Z,17.97
2018-11-28T18:20:21.430Z,15.47
2018-11-28T18:22:49.398Z,14.93
2018-11-28T18:25:17.329Z,15.10
2018-11-28T18:27:45.324Z,15.10
2018-11-28T18:30:13.238Z,14.97
2018-11-28T18:32:41.266Z,13.73
2018-11-28T18:35:09.695Z,14.93
2018-11-28T18:37:37.689Z,16.00
2018-11-28T18:40:09.147Z,15.10
2018-11-28T18:42:37.210Z,23.10
2018-11-28T18:45:04.703Z,15.70
2018-11-28T18:47:32.719Z,15.47
2018-11-28T18:50:01.311Z,15.73
2018-11-28T18:52:29.275Z,17.87
2018-11-28T18:54:57.215Z,15.23
2018-11-28T18:57:25.209Z,15.30
2018-11-28T18:59:53.174Z,16.00
2018-11-28T19:02:21.154Z,15.83
2018-11-28T19:04:49.104Z,17.10
2018-11-28T19:07:17.059Z,16.37
2018-11-28T19:09:49.514Z,13.57
2018-11-28T19:12:17.842Z,13.53
2018-11-28T19:14:46.048Z,16.87
2018-11-28T19:17:13.719Z,15.40
2018-11-28T19:19:41.666Z,15.03
2018-11-28T19:22:09.610Z,15.50
2018-11-28T19:24:37.554Z,16.77
2018-11-28T19:27:05.671Z,17.07
2018-11-28T19:29:33.614Z,14.40
2018-11-28T19:32:01.605Z,18.57
2018-11-28T19:34:29.539Z,17.90
2018-11-28T19:36:57.531Z,19.03
2018-11-28T19:39:25.467Z,14.40
2018-11-28T19:41:53.466Z,12.97
2018-11-28T19:44:21.475Z,15.00
2018-11-28T19:46:49.531Z,16.27
2018-11-28T19:49:17.484Z,14.30
2018-11-28T19:51:44.954Z,16.17
2018-11-28T19:54:12.901Z,15.80
2018-11-28T19:56:40.850Z,14.20
2018-11-28T19:59:08.856Z,14.60
2018-11-28T20:01:36.803Z,12.63
2018-11-28T20:04:04.726Z,14.30
2018-11-28T20:06:32.678Z,14.20
2018-11-28T20:09:00.632Z,12.43
2018-11-28T20:11:28.595Z,13.50
2018-11-28T20:13:56.546Z,14.13
2018-11-28T20:16:24.481Z,13.07
2018-11-28T20:18:52.431Z,14.53
2018-11-28T20:21:20.667Z,14.87
2018-11-28T20:23:48.597Z,14.97
2018-11-28T20:26:16.576Z,15.27
2018-11-28T20:28:44.501Z,14.60
2018-11-28T20:31:13.301Z,13.40
2018-11-28T20:33:41.300Z,13.87
2018-11-28T20:36:09.344Z,13.20
2018-11-28T20:38:37.278Z,12.20
2018-11-28T20:41:05.487Z,11.27
2018-11-28T20:43:32.967Z,13.87
2018-11-28T20:46:00.991Z,12.70
2018-11-28T20:48:28.914Z,13.73
2018-11-28T20:50:56.938Z,12.00
2018-11-28T20:53:24.882Z,12.27
2018-11-28T20:55:52.806Z,11.33
2018-11-28T20:58:20.738Z,10.80
2018-11-28T21:00:48.693Z,11.07
2018-11-28T21:03:16.639Z,11.47
2018-11-28T21:05:44.562Z,12.33
2018-11-28T21:08:12.498Z,13.00
2018-11-28T21:10:41.143Z,11.80
2018-11-28T21:13:11.548Z,11.30
2018-11-28T21:15:39.802Z,12.50
2018-11-28T21:18:08.284Z,13.43
2018-11-28T21:20:36.406Z,12.90
2018-11-28T21:23:05.400Z,12.33
2018-11-28T21:25:33.371Z,12.83
2018-11-28T21:28:01.294Z,11.17
2018-11-28T21:30:29.234Z,13.70
2018-11-28T21:32:58.042Z,12.40
2018-11-28T21:35:27.662Z,12.33
2018-11-28T21:37:55.583Z,10.13
2018-11-28T21:40:23.514Z,11.57
2018-11-28T21:42:51.571Z,12.03
2018-11-28T21:45:19.038Z,11.97
2018-11-28T21:47:47.090Z,11.73
2018-11-28T21:50:15.497Z,11.63
2018-11-28T21:52:43.562Z,12.00
2018-11-28T21:55:11.958Z,12.50
2018-11-28T21:57:39.879Z,12.13
2018-11-28T22:00:11.362Z,11.87
2018-11-28T22:02:39.286Z,12.33
2018-11-28T22:05:07.915Z,12.67
2018-11-28T22:07:35.833Z,10.70
2018-11-28T22:10:04.852Z,11.80
2018-11-28T22:12:32.810Z,13.07
2018-11-28T22:15:00.766Z,11.70
2018-11-28T22:17:28.693Z,11.47
2018-11-28T22:19:56.637Z,11.77
2018-11-28T22:22:24.582Z,11.10
2018-11-28T22:24:52.550Z,11.00
2018-11-28T22:27:20.557Z,11.70
2018-11-28T22:29:48.491Z,11.37
2018-11-28T22:32:16.424Z,12.27
2018-11-28T22:34:45.370Z,11.40
2018-11-28T22:37:13.315Z,11.80
2018-11-28T22:39:41.546Z,11.53
2018-11-28T22:42:09.481Z,11.53
2018-11-28T22:44:38.388Z,12.17
2018-11-28T22:47:06.314Z,12.20
2018-11-28T22:49:34.242Z,11.43
2018-11-28T22:52:02.193Z,11.87
2018-11-28T22:54:30.165Z,11.93
2018-11-28T22:56:58.122Z,12.60
2018-11-28T22:59:26.066Z,12.00
2018-11-28T23:03:00.872Z,13.07
2018-11-28T23:05:33.333Z,12.23
2018-11-28T23:08:01.657Z,12.80
2018-11-28T23:10:29.613Z,10.67
2018-11-28T23:12:57.567Z,12.83
2018-11-28T23:15:25.493Z,12.50
2018-11-28T23:17:55.281Z,11.67
2018-11-28T23:20:21.394Z,12.00
2018-11-28T23:22:49.415Z,11.50
2018-11-28T23:25:17.349Z,12.77
2018-11-28T23:27:45.348Z,13.70
2018-11-28T23:30:14.856Z,15.50
2018-11-28T23:32:42.782Z,14.37
2018-11-28T23:35:11.048Z,13.97
2018-11-28T23:37:39.492Z,14.07
2018-11-28T23:40:11.058Z,13.17
2018-11-28T23:42:38.988Z,13.00
